Time;durP1;ratioP1;P1;durP2;ratioP2;P2;SDS_P1;SDS_P2;PMS_P1;PMS_P2;Temp;Humidity;BMP_temperature;BMP_pressure;BME280_temperature;BME280_humidity;BME280_pressure;Samples;Min_cycle;Max_cycle;Signal;HPM_P1;HPM_P2
2023/04/24 00:01:53;;;;;;;4.57;3.13;;;12.50;99.90;;;;;;5035966;28;20504;-73
2023/04/24 00:04:21;;;;;;;5.60;3.70;;;12.50;99.90;;;;;;5017856;28;20469;-73
2023/04/24 00:06:53;;;;;;;4.57;3.30;;;12.50;99.90;;;;;;5036454;28;20896;-73
2023/04/24 00:09:22;;;;;;;4.97;3.60;;;12.50;99.90;;;;;;5036091;28;20420;-73
2023/04/24 00:11:50;;;;;;;5.07;4.03;;;12.50;99.90;;;;;;5017884;28;20455;-73
2023/04/24 00:14:18;;;;;;;5.13;3.87;;;12.50;99.90;;;;;;5017668;28;20477;-73
2023/04/24 00:16:47;;;;;;;5.57;4.00;;;12.50;99.90;;;;;;5017755;28;20534;-73
2023/04/24 00:19:17;;;;;;;4.20;3.77;;;12.50;99.90;;;;;;5035445;28;20918;-73
2023/04/24 00:21:45;;;;;;;4.20;3.40;;;12.50;99.90;;;;;;5034583;28;20434;-73
2023/04/24 00:24:13;;;;;;;6.20;4.17;;;12.50;99.90;;;;;;5035317;28;21072;-73
2023/04/24 00:26:41;;;;;;;4.50;3.67;;;12.50;99.90;;;;;;5017601;28;20470;-73
2023/04/24 00:29:09;;;;;;;4.60;4.10;;;12.50;99.90;;;;;;5017609;28;20454;-73
2023/04/24 00:31:37;;;;;;;4.33;3.93;;;12.40;99.90;;;;;;5035366;28;20481;-73
2023/04/24 00:34:06;;;;;;;4.20;3.80;;;12.40;99.90;;;;;;5017176;28;20931;-73
2023/04/24 00:36:35;;;;;;;4.87;4.37;;;12.40;99.90;;;;;;5035353;28;20431;-73
2023/04/24 00:39:03;;;;;;;4.50;4.10;;;12.40;99.90;;;;;;5017356;28;20447;-73
2023/04/24 00:41:31;;;;;;;4.70;4.00;;;12.40;99.90;;;;;;5017571;28;20500;-73
2023/04/24 00:44:00;;;;;;;4.20;3.63;;;12.40;99.90;;;;;;5017420;28;20459;-73
2023/04/24 00:46:28;;;;;;;4.53;3.57;;;12.30;99.90;;;;;;5017300;28;20517;-73
2023/04/24 00:48:57;;;;;;;4.17;3.00;;;12.30;99.90;;;;;;5017262;28;20554;-73
2023/04/24 00:51:25;;;;;;;3.63;3.23;;;12.30;99.90;;;;;;5035092;28;20443;-73
2023/04/24 00:53:55;;;;;;;4.00;3.30;;;12.30;99.90;;;;;;5034688;28;20823;-71
2023/04/24 00:56:23;;;;;;;3.50;3.20;;;12.20;99.90;;;;;;5016928;28;20462;-71
2023/04/24 00:58:51;;;;;;;3.80;3.10;;;12.20;99.90;;;;;;5034685;28;20483;-71
2023/04/24 01:01:21;;;;;;;4.10;3.30;;;12.20;99.90;;;;;;5016901;28;20942;-72
2023/04/24 01:03:54;;;;;;;4.00;3.00;;;12.10;99.90;;;;;;5017119;28;20477;-72
2023/04/24 01:06:24;;;;;;;4.13;3.30;;;12.10;99.90;;;;;;5017217;28;20451;-72
2023/04/24 01:08:55;;;;;;;4.47;3.13;;;12.10;99.90;;;;;;5017921;28;20526;-71
2023/04/24 01:11:23;;;;;;;3.50;3.10;;;12.10;99.90;;;;;;5035427;28;20424;-72
2023/04/24 01:13:52;;;;;;;4.37;3.97;;;12.10;99.90;;;;;;5017541;28;20462;-71
2023/04/24 01:16:23;;;;;;;4.30;3.90;;;12.00;99.90;;;;;;5034861;28;20458;-72
2023/04/24 01:18:52;;;;;;;4.30;3.80;;;12.00;99.90;;;;;;5034814;28;20455;-71
2023/04/24 01:21:22;;;;;;;4.23;3.80;;;12.00;99.90;;;;;;5017305;28;20458;-71
2023/04/24 01:23:52;;;;;;;4.30;3.90;;;12.00;99.90;;;;;;5017782;28;20557;-71
2023/04/24 01:26:21;;;;;;;4.13;3.70;;;12.00;99.90;;;;;;5035326;28;20435;-72
2023/04/24 01:28:49;;;;;;;3.50;3.20;;;12.00;99.90;;;;;;5017437;28;20524;-72
2023/04/24 01:31:17;;;;;;;4.50;3.97;;;12.00;99.90;;;;;;5017119;28;20539;-71
2023/04/24 01:33:46;;;;;;;4.40;4.00;;;12.00;99.90;;;;;;5017189;28;20505;-71
2023/04/24 01:36:15;;;;;;;4.13;3.73;;;12.00;99.90;;;;;;5017397;28;20443;-71
2023/04/24 01:38:43;;;;;;;4.60;3.87;;;12.00;99.90;;;;;;5017200;28;20451;-72
2023/04/24 01:41:13;;;;;;;3.90;3.50;;;12.00;99.90;;;;;;5017555;28;20457;-71
2023/04/24 01:43:41;;;;;;;4.20;3.70;;;11.90;99.90;;;;;;5017722;28;20534;-71
2023/04/24 01:46:09;;;;;;;3.40;3.10;;;11.90;99.90;;;;;;5016515;28;20478;-72
2023/04/24 01:48:37;;;;;;;3.83;3.43;;;11.90;99.90;;;;;;5031309;23;20665;-72
2023/04/24 01:51:05;;;;;;;3.90;3.40;;;11.90;99.90;;;;;;5032470;28;20454;-72
2023/04/24 01:53:33;;;;;;;3.83;3.17;;;11.90;99.90;;;;;;5019577;28;20468;-72
2023/04/24 01:56:04;;;;;;;4.17;3.70;;;11.90;99.90;;;;;;5012775;28;20444;-72
2023/04/24 01:58:34;;;;;;;5.33;3.53;;;11.90;99.90;;;;;;5012937;28;20450;-72
2023/04/24 02:01:02;;;;;;;3.80;3.40;;;11.90;99.90;;;;;;5012994;28;20459;-72
2023/04/24 02:03:31;;;;;;;3.60;2.57;;;11.80;99.90;;;;;;5012876;28;20476;-72
2023/04/24 02:05:59;;;;;;;4.20;3.50;;;11.80;99.90;;;;;;5012903;28;20958;-72
2023/04/24 02:08:27;;;;;;;3.80;3.40;;;11.80;99.90;;;;;;5014210;28;20463;-72
2023/04/24 02:10:55;;;;;;;4.10;3.70;;;11.80;99.90;;;;;;5014129;28;20435;-72
2023/04/24 02:13:25;;;;;;;4.40;3.90;;;11.80;99.90;;;;;;5013083;28;21001;-72
2023/04/24 02:15:54;;;;;;;4.00;3.60;;;11.80;99.90;;;;;;5013104;28;20448;-72
2023/04/24 02:18:24;;;;;;;4.27;3.87;;;11.80;99.90;;;;;;5013085;28;20447;-72
2023/04/24 02:20:52;;;;;;;5.03;4.00;;;11.80;99.90;;;;;;5012830;28;20454;-73
2023/04/24 02:23:21;;;;;;;4.47;3.57;;;11.80;99.90;;;;;;5012933;28;20514;-72
2023/04/24 02:25:49;;;;;;;3.83;3.37;;;11.80;99.90;;;;;;5014244;28;20432;-72
2023/04/24 02:28:18;;;;;;;4.50;3.90;;;11.80;99.90;;;;;;5012930;28;20479;-72
2023/04/24 02:30:46;;;;;;;4.23;3.83;;;11.80;99.90;;;;;;5013041;28;20443;-73
2023/04/24 02:33:15;;;;;;;5.50;5.10;;;11.80;99.90;;;;;;5013094;28;20502;-73
2023/04/24 02:35:43;;;;;;;5.60;5.10;;;11.80;99.90;;;;;;5012807;28;20458;-72
2023/04/24 02:38:12;;;;;;;6.00;5.50;;;11.80;99.90;;;;;;5012798;28;20527;-72
2023/04/24 02:40:40;;;;;;;6.33;5.80;;;11.70;99.90;;;;;;5013925;28;20447;-72
2023/04/24 02:43:10;;;;;;;6.97;6.37;;;11.70;99.90;;;;;;5012664;28;20474;-72
2023/04/24 02:45:38;;;;;;;7.40;6.80;;;11.70;99.90;;;;;;5015251;28;20458;-72
2023/04/24 02:48:06;;;;;;;8.80;8.00;;;11.70;99.90;;;;;;5016397;28;20475;-72
2023/04/24 02:50:36;;;;;;;7.87;7.27;;;11.70;99.90;;;;;;5016602;28;20448;-72
2023/04/24 02:53:04;;;;;;;8.50;7.80;;;11.60;99.90;;;;;;5016944;28;20522;-72
2023/04/24 02:55:32;;;;;;;9.20;8.30;;;11.60;99.90;;;;;;5016457;28;20471;-72
2023/04/24 02:58:00;;;;;;;9.03;8.37;;;11.60;99.90;;;;;;5016875;28;20439;-72
2023/04/24 03:00:29;;;;;;;9.13;8.33;;;11.50;99.90;;;;;;5016459;28;20444;-72
2023/04/24 03:02:57;;;;;;;9.57;8.87;;;11.50;99.90;;;;;;5016541;28;20472;-72
2023/04/24 03:05:27;;;;;;;9.03;8.33;;;11.50;99.90;;;;;;5017788;28;20443;-72
2023/04/24 03:07:56;;;;;;;8.60;7.90;;;11.50;99.90;;;;;;5016302;28;20522;-72
2023/04/24 03:10:24;;;;;;;8.57;7.93;;;11.50;99.90;;;;;;5016268;28;20444;-72
2023/04/24 03:12:54;;;;;;;8.70;8.00;;;11.50;99.90;;;;;;5016477;28;20912;-72
2023/04/24 03:15:22;;;;;;;9.63;8.83;;;11.50;99.90;;;;;;5016712;28;20482;-72
2023/04/24 03:17:51;;;;;;;9.30;8.50;;;11.40;99.90;;;;;;5016567;28;20451;-72
2023/04/24 03:20:22;;;;;;;9.07;8.23;;;11.40;99.90;;;;;;5017756;28;20428;-72
2023/04/24 03:22:50;;;;;;;9.40;8.60;;;11.40;99.90;;;;;;5016979;28;20813;-72
2023/04/24 03:25:20;;;;;;;9.20;8.43;;;11.40;99.90;;;;;;5016230;28;20849;-72
2023/04/24 03:27:48;;;;;;;8.87;8.17;;;11.40;99.90;;;;;;5015763;28;20451;-72
2023/04/24 03:30:28;;;;;;;8.67;7.97;;;11.40;99.90;;;;;;5016188;28;20458;-72
2023/04/24 03:32:59;;;;;;;9.57;8.87;;;11.40;99.90;;;;;;5015926;28;20537;-72
2023/04/24 03:35:31;;;;;;;9.20;8.50;;;11.40;99.90;;;;;;5016316;28;20454;-72
2023/04/24 03:38:04;;;;;;;9.50;8.60;;;11.40;99.90;;;;;;5016169;28;20894;-72
2023/04/24 03:40:57;;;;;;;7.57;6.97;;;11.50;99.90;;;;;;5016429;28;20448;-72
2023/04/24 03:43:48;;;;;;;9.57;8.70;;;11.40;99.90;;;;;;5012039;28;20891;-72
2023/04/24 03:46:16;;;;;;;8.60;7.90;;;11.40;99.90;;;;;;5016210;28;20440;-72
2023/04/24 03:48:52;;;;;;;9.80;8.90;;;11.40;99.90;;;;;;5016085;28;20503;-72
2023/04/24 03:51:23;;;;;;;9.30;8.50;;;11.40;99.90;;;;;;5016555;28;20447;-72
2023/04/24 03:53:55;;;;;;;8.90;8.20;;;11.40;99.90;;;;;;5016479;28;20507;-72
2023/04/24 03:56:27;;;;;;;9.97;9.17;;;11.40;99.90;;;;;;5016221;28;20451;-72
2023/04/24 03:58:55;;;;;;;9.47;8.67;;;11.50;99.90;;;;;;5016450;28;20539;-72
2023/04/24 04:01:24;;;;;;;9.23;8.53;;;11.40;99.90;;;;;;5016100;28;20447;-72
2023/04/24 04:03:59;;;;;;;9.60;8.80;;;11.50;99.90;;;;;;5016318;28;20869;-72
2023/04/24 04:06:28;;;;;;;8.90;8.20;;;11.40;99.90;;;;;;5015907;28;20476;-72
2023/04/24 04:09:00;;;;;;;9.57;8.67;;;11.40;99.90;;;;;;5016121;28;20463;-72
2023/04/24 04:11:30;;;;;;;9.17;8.40;;;11.40;99.90;;;;;;5015802;28;20479;-72
2023/04/24 04:13:58;;;;;;;9.20;8.40;;;11.50;99.90;;;;;;5016131;28;20471;-72
2023/04/24 04:16:26;;;;;;;9.47;8.57;;;11.50;99.90;;;;;;5015832;28;21040;-72
2023/04/24 04:19:02;;;;;;;8.60;7.90;;;11.50;99.90;;;;;;5015865;28;20960;-72
2023/04/24 04:21:31;;;;;;;7.50;6.90;;;11.50;99.90;;;;;;5015724;28;20453;-72
2023/04/24 04:24:11;;;;;;;7.53;6.83;;;11.50;99.90;;;;;;5015507;28;20529;-72
2023/04/24 04:26:46;;;;;;;7.50;6.90;;;11.50;99.90;;;;;;5015493;28;20510;-72
2023/04/24 04:29:23;;;;;;;7.60;6.90;;;11.50;99.90;;;;;;5015436;28;20548;-72
2023/04/24 04:31:52;;;;;;;6.90;6.30;;;11.40;99.90;;;;;;5016670;28;20533;-72
2023/04/24 04:34:22;;;;;;;6.97;6.37;;;11.50;99.90;;;;;;5015209;28;20566;-72
2023/04/24 04:36:52;;;;;;;6.73;6.03;;;11.50;99.90;;;;;;5015204;28;20502;-72
2023/04/24 04:39:40;;;;;;;7.27;6.57;;;11.50;99.90;;;;;;5005441;28;20451;-72
2023/04/24 04:42:34;;;;;;;7.00;6.40;;;11.50;99.90;;;;;;5015943;28;20459;-72
2023/04/24 04:45:03;;;;;;;6.37;5.77;;;11.50;99.90;;;;;;5014837;28;20475;-72
2023/04/24 04:47:42;;;;;;;6.53;5.93;;;11.50;99.90;;;;;;5014762;28;20990;-72
2023/04/24 04:50:11;;;;;;;7.17;6.47;;;11.50;99.90;;;;;;5014834;28;20850;-72
2023/04/24 04:52:39;;;;;;;6.33;5.77;;;11.50;99.90;;;;;;5014840;28;20514;-72
2023/04/24 04:55:20;;;;;;;7.73;6.90;;;11.50;99.90;;;;;;5015331;28;20853;-72
2023/04/24 04:58:18;;;;;;;6.90;6.20;;;11.50;99.90;;;;;;5012331;28;20951;-72
2023/04/24 05:00:50;;;;;;;5.53;5.03;;;11.50;99.90;;;;;;5015204;28;20479;-71
2023/04/24 05:03:27;;;;;;;6.73;6.03;;;11.50;99.90;;;;;;5015194;28;20451;-71
2023/04/24 05:06:01;;;;;;;6.03;5.43;;;11.50;99.90;;;;;;5015011;28;20441;-71
2023/04/24 05:08:33;;;;;;;7.17;6.43;;;11.50;99.90;;;;;;5013554;28;20443;-71
2023/04/24 05:11:02;;;;;;;6.23;5.30;;;11.50;99.90;;;;;;5014090;28;20817;-72
2023/04/24 05:13:33;;;;;;;5.97;5.37;;;11.50;99.90;;;;;;5014461;28;20990;-72
2023/04/24 05:16:31;;;;;;;6.50;5.90;;;11.50;99.90;;;;;;5015265;28;20842;-72
2023/04/24 05:18:59;;;;;;;7.37;6.60;;;11.50;99.90;;;;;;5014225;28;20448;-71
2023/04/24 05:21:34;;;;;;;6.63;5.90;;;11.60;99.90;;;;;;5013999;28;20942;-71
2023/04/24 05:24:02;;;;;;;7.30;6.60;;;11.50;99.90;;;;;;5014309;28;20467;-72
2023/04/24 05:26:47;;;;;;;7.23;6.63;;;11.60;99.90;;;;;;5013542;28;20823;-71
2023/04/24 05:29:20;;;;;;;7.50;6.80;;;11.60;99.90;;;;;;5013960;28;20502;-72
2023/04/24 05:31:48;;;;;;;7.50;6.67;;;11.60;99.90;;;;;;5013322;28;20543;-72
2023/04/24 05:34:16;;;;;;;7.23;6.53;;;11.60;99.90;;;;;;5013483;28;20546;-71
2023/04/24 05:36:46;;;;;;;7.17;6.23;;;11.60;99.90;;;;;;5013661;28;20545;-72
2023/04/24 05:39:14;;;;;;;7.20;6.60;;;11.60;99.90;;;;;;5013688;28;20456;-72
2023/04/24 05:41:43;;;;;;;8.80;8.00;;;11.60;99.90;;;;;;5013576;28;20448;-72
2023/04/24 05:44:11;;;;;;;9.90;9.00;;;11.60;99.90;;;;;;5013519;28;20471;-72
2023/04/24 05:46:40;;;;;;;9.10;8.30;;;11.60;99.90;;;;;;5013329;28;20539;-72
2023/04/24 05:49:10;;;;;;;10.20;9.20;;;11.70;99.90;;;;;;5013446;28;20507;-72
2023/04/24 05:51:39;;;;;;;10.90;9.07;;;11.70;99.90;;;;;;5013265;28;20534;-72
2023/04/24 05:54:07;;;;;;;9.97;9.17;;;11.60;99.90;;;;;;5014520;28;20467;-72
2023/04/24 05:56:35;;;;;;;10.10;8.27;;;11.70;99.90;;;;;;5014704;28;20436;-72
2023/04/24 05:59:05;;;;;;;10.80;9.73;;;11.70;99.90;;;;;;5013285;28;20454;-72
2023/04/24 06:01:34;;;;;;;10.07;9.17;;;11.70;99.90;;;;;;5013036;28;20459;-72
2023/04/24 06:04:13;;;;;;;10.50;9.60;;;11.70;99.90;;;;;;5013138;28;20475;-72
2023/04/24 06:06:41;;;;;;;10.87;9.87;;;11.70;99.90;;;;;;5014489;28;20903;-72
2023/04/24 06:09:11;;;;;;;9.47;8.57;;;11.70;99.90;;;;;;5012890;28;20448;-73
2023/04/24 06:11:40;;;;;;;10.00;9.17;;;11.70;99.90;;;;;;5012861;28;20452;-73
2023/04/24 06:14:15;;;;;;;10.57;9.50;;;11.70;99.90;;;;;;5013762;28;20467;-72
2023/04/24 06:17:06;;;;;;;11.17;10.17;;;11.70;99.90;;;;;;5012192;28;20448;-72
2023/04/24 06:19:40;;;;;;;10.97;9.97;;;11.70;99.90;;;;;;5012664;28;20444;-72
2023/04/24 06:22:08;;;;;;;10.67;9.67;;;11.80;99.90;;;;;;5014164;28;20838;-72
2023/04/24 06:24:38;;;;;;;10.47;9.57;;;11.80;99.90;;;;;;5013459;28;20479;-72
2023/04/24 06:27:06;;;;;;;10.97;9.97;;;11.80;99.90;;;;;;5013448;28;20454;-72
2023/04/24 06:29:35;;;;;;;10.80;9.83;;;11.80;99.90;;;;;;5014976;28;20812;-72
2023/04/24 06:32:03;;;;;;;11.63;10.53;;;11.80;99.90;;;;;;5014722;28;20801;-72
2023/04/24 06:34:33;;;;;;;10.67;9.77;;;11.80;99.90;;;;;;5013275;28;21031;-72
2023/04/24 06:37:03;;;;;;;11.37;10.40;;;11.80;99.90;;;;;;5013279;28;20976;-72
2023/04/24 06:39:31;;;;;;;12.10;11.00;;;11.80;99.90;;;;;;5014182;28;20443;-72
2023/04/24 06:42:00;;;;;;;11.23;10.27;;;11.80;99.90;;;;;;5014678;28;20447;-72
2023/04/24 06:44:28;;;;;;;12.50;11.40;;;11.80;99.90;;;;;;5015635;28;20439;-72
2023/04/24 06:46:56;;;;;;;13.10;12.00;;;11.70;99.90;;;;;;5015596;28;21020;-72
2023/04/24 06:49:26;;;;;;;13.33;12.13;;;11.80;99.90;;;;;;5014164;28;20481;-72
2023/04/24 06:51:54;;;;;;;13.43;12.33;;;11.80;99.90;;;;;;5014647;28;20427;-72
2023/04/24 06:54:24;;;;;;;13.17;12.07;;;11.80;99.90;;;;;;5014658;28;20474;-72
2023/04/24 06:56:52;;;;;;;14.33;12.83;;;11.80;99.90;;;;;;5014676;28;20443;-72
2023/04/24 06:59:21;;;;;;;14.33;13.10;;;11.80;99.90;;;;;;5014543;28;20448;-72
2023/04/24 07:01:53;;;;;;;14.00;12.90;;;11.80;99.90;;;;;;5013599;28;20444;-72
2023/04/24 07:04:24;;;;;;;14.90;13.60;;;11.80;99.90;;;;;;5015139;28;20466;-72
2023/04/24 07:06:55;;;;;;;15.30;13.90;;;11.80;99.90;;;;;;5014842;28;20447;-72
2023/04/24 07:09:26;;;;;;;15.00;13.40;;;11.80;99.90;;;;;;5013277;28;20450;-72
2023/04/24 07:11:56;;;;;;;14.47;13.07;;;11.80;99.90;;;;;;5015336;28;20420;-72
2023/04/24 07:14:24;;;;;;;14.07;12.87;;;11.80;99.90;;;;;;5013665;28;20990;-72
2023/04/24 07:16:52;;;;;;;14.80;13.50;;;11.80;99.90;;;;;;5014766;28;20444;-72
2023/04/24 07:19:20;;;;;;;14.20;13.10;;;11.90;99.90;;;;;;5013431;28;20436;-72
2023/04/24 07:21:48;;;;;;;15.10;13.90;;;11.90;99.90;;;;;;5013710;28;20506;-72
2023/04/24 07:24:16;;;;;;;14.10;12.90;;;12.00;99.90;;;;;;5013940;28;20901;-72
2023/04/24 07:26:48;;;;;;;15.43;14.03;;;12.00;99.90;;;;;;5014748;28;20448;-72
2023/04/24 07:29:16;;;;;;;13.80;12.50;;;12.10;99.90;;;;;;5014325;28;20431;-72
2023/04/24 07:31:44;;;;;;;14.43;13.23;;;12.10;99.90;;;;;;5015484;28;20471;-72
2023/04/24 07:34:12;;;;;;;13.30;12.10;;;12.10;99.90;;;;;;5016614;28;20489;-72
2023/04/24 07:36:42;;;;;;;14.13;12.80;;;12.20;99.90;;;;;;5017736;28;20451;-72
2023/04/24 07:39:10;;;;;;;13.40;12.10;;;12.20;99.90;;;;;;5018636;28;20458;-72
2023/04/24 07:41:38;;;;;;;13.07;11.87;;;12.20;99.90;;;;;;5019171;28;20434;-72
2023/04/24 07:44:08;;;;;;;12.77;11.57;;;12.30;99.90;;;;;;5018192;28;20463;-72
2023/04/24 07:46:36;;;;;;;12.83;11.60;;;12.40;99.90;;;;;;5016661;28;20459;-72
2023/04/24 07:49:05;;;;;;;13.43;11.97;;;12.40;99.90;;;;;;5015802;28;20455;-72
2023/04/24 07:51:41;;;;;;;13.87;12.67;;;12.50;99.90;;;;;;5016993;28;20490;-72
2023/04/24 07:54:10;;;;;;;12.43;11.33;;;12.60;99.90;;;;;;5017136;28;20455;-73
2023/04/24 07:56:38;;;;;;;13.20;12.00;;;12.60;99.90;;;;;;5016663;28;20444;-72
2023/04/24 07:59:09;;;;;;;11.40;10.40;;;12.70;99.90;;;;;;5015582;28;20447;-72
2023/04/24 08:01:38;;;;;;;12.13;11.00;;;12.70;99.90;;;;;;5017529;28;20416;-72
2023/04/24 08:04:06;;;;;;;13.00;11.90;;;12.70;99.90;;;;;;5016787;28;20452;-72
2023/04/24 08:06:35;;;;;;;12.67;11.57;;;12.70;99.90;;;;;;5015722;28;20452;-72
2023/04/24 08:09:03;;;;;;;11.90;10.80;;;12.70;99.90;;;;;;5017169;28;20442;-72
2023/04/24 08:11:31;;;;;;;13.17;11.93;;;12.70;99.90;;;;;;5016427;28;20944;-72
2023/04/24 08:13:59;;;;;;;13.03;11.93;;;12.60;99.90;;;;;;5014613;28;20507;-72
2023/04/24 08:16:29;;;;;;;13.30;12.10;;;12.60;99.90;;;;;;5014788;28;20448;-72
2023/04/24 08:18:57;;;;;;;14.13;12.80;;;12.60;99.90;;;;;;5016127;28;20446;-72
2023/04/24 08:21:27;;;;;;;13.97;12.43;;;12.60;99.90;;;;;;5016368;28;20436;-73
2023/04/24 08:23:55;;;;;;;13.60;12.40;;;12.60;99.90;;;;;;5015649;28;20451;-72
2023/04/24 08:26:23;;;;;;;13.03;11.93;;;12.60;99.90;;;;;;5016358;28;20792;-72
2023/04/24 08:28:51;;;;;;;15.73;14.33;;;12.70;99.90;;;;;;5014655;28;20440;-72
2023/04/24 08:31:20;;;;;;;16.67;15.07;;;12.70;99.90;;;;;;5015531;28;20479;-72
2023/04/24 08:33:49;;;;;;;13.30;12.07;;;12.80;99.90;;;;;;5014251;28;20463;-72
2023/04/24 08:36:17;;;;;;;12.47;11.27;;;12.90;99.90;;;;;;5015785;28;20452;-72
2023/04/24 08:38:46;;;;;;;12.23;11.10;;;13.00;99.90;;;;;;5014525;28;20447;-71
2023/04/24 08:41:16;;;;;;;13.00;11.80;;;13.00;99.90;;;;;;5015414;28;20443;-72
2023/04/24 08:43:46;;;;;;;13.70;12.50;;;13.00;99.90;;;;;;5014887;28;20977;-72
2023/04/24 08:46:16;;;;;;;12.87;11.77;;;13.00;99.90;;;;;;5015917;28;20432;-72
2023/04/24 08:48:44;;;;;;;11.93;10.93;;;13.00;99.90;;;;;;5015397;28;20491;-72
2023/04/24 08:51:14;;;;;;;13.67;12.13;;;12.90;99.90;;;;;;5013830;28;20476;-72
2023/04/24 08:53:43;;;;;;;12.97;11.77;;;12.90;99.90;;;;;;5015204;28;20463;-72
2023/04/24 08:56:12;;;;;;;13.17;12.00;;;12.90;99.90;;;;;;5015402;28;20448;-73
2023/04/24 08:58:41;;;;;;;13.33;12.27;;;12.90;99.90;;;;;;5014025;28;20447;-72
2023/04/24 09:01:10;;;;;;;12.67;11.63;;;12.90;99.90;;;;;;5015152;28;20444;-72
2023/04/24 09:03:39;;;;;;;12.70;11.60;;;12.90;99.90;;;;;;5013688;28;20463;-72
2023/04/24 09:06:10;;;;;;;12.03;10.93;;;12.90;99.90;;;;;;5014898;28;20930;-72
2023/04/24 09:08:40;;;;;;;13.80;12.43;;;12.90;99.90;;;;;;5015048;28;20424;-73
2023/04/24 09:11:09;;;;;;;14.07;12.77;;;12.90;99.90;;;;;;5015497;28;20456;-73
2023/04/24 09:13:38;;;;;;;13.53;12.33;;;12.90;99.90;;;;;;5013806;28;20998;-73
2023/04/24 09:16:06;;;;;;;14.07;12.87;;;12.90;99.90;;;;;;5014763;28;20444;-72
2023/04/24 09:18:35;;;;;;;13.50;12.20;;;12.80;99.90;;;;;;5014773;28;20432;-72
2023/04/24 09:21:05;;;;;;;14.17;12.87;;;12.80;99.90;;;;;;5013454;28;20452;-72
2023/04/24 09:23:33;;;;;;;15.53;13.97;;;12.80;99.90;;;;;;5015993;28;20994;-72
2023/04/24 09:26:05;;;;;;;14.93;13.63;;;12.80;99.90;;;;;;5014543;28;20452;-72
2023/04/24 09:28:36;;;;;;;14.90;13.50;;;12.80;99.90;;;;;;5014872;28;20443;-72
2023/04/24 09:31:08;;;;;;;14.10;12.80;;;12.80;99.90;;;;;;5015323;28;20460;-73
2023/04/24 09:33:37;;;;;;;16.27;14.70;;;12.80;99.90;;;;;;5015396;28;20456;-72
2023/04/24 09:36:06;;;;;;;19.47;17.77;;;12.80;99.90;;;;;;5013457;28;20502;-73
2023/04/24 09:38:36;;;;;;;21.30;19.60;;;12.80;99.90;;;;;;5014855;28;20438;-72
2023/04/24 09:41:07;;;;;;;23.47;21.30;;;12.80;99.90;;;;;;5014588;28;20436;-73
2023/04/24 09:43:36;;;;;;;22.73;21.00;;;12.80;99.90;;;;;;5014956;28;20502;-73
2023/04/24 09:46:08;;;;;;;22.17;20.27;;;12.80;99.90;;;;;;5013149;28;20513;-72
2023/04/24 09:48:38;;;;;;;22.17;20.37;;;12.80;99.90;;;;;;5014908;28;20934;-72
2023/04/24 09:51:10;;;;;;;21.93;20.20;;;12.70;99.90;;;;;;5013426;28;20502;-72
2023/04/24 09:53:39;;;;;;;18.93;17.20;;;12.70;99.90;;;;;;5012707;28;20471;-72
2023/04/24 09:56:13;;;;;;;21.33;19.50;;;12.70;99.90;;;;;;5013492;28;20448;-72
2023/04/24 09:58:41;;;;;;;20.83;19.00;;;12.70;99.90;;;;;;5014038;28;20508;-72
2023/04/24 10:01:09;;;;;;;20.83;19.00;;;12.60;99.90;;;;;;5014101;28;20450;-72
2023/04/24 10:03:38;;;;;;;21.60;19.67;;;12.60;99.90;;;;;;5013842;28;20460;-72
2023/04/24 10:06:08;;;;;;;20.77;19.07;;;12.60;99.90;;;;;;5013940;28;20945;-72
2023/04/24 10:08:38;;;;;;;19.90;18.30;;;12.60;99.90;;;;;;5014011;28;20427;-72
2023/04/24 10:11:07;;;;;;;19.60;18.00;;;12.60;99.90;;;;;;5014132;28;20469;-72
2023/04/24 10:13:36;;;;;;;19.13;17.53;;;12.60;99.90;;;;;;5014026;28;20999;-72
2023/04/24 10:16:05;;;;;;;20.10;18.30;;;12.60;99.90;;;;;;5017113;28;20436;-72
2023/04/24 10:18:34;;;;;;;19.67;17.87;;;12.60;99.90;;;;;;5016443;28;20435;-72
2023/04/24 10:21:03;;;;;;;18.73;17.10;;;12.60;99.90;;;;;;5014899;28;20492;-72
2023/04/24 10:23:31;;;;;;;20.37;18.37;;;12.70;99.90;;;;;;5012610;28;20466;-72
2023/04/24 10:26:01;;;;;;;19.67;17.97;;;12.80;99.90;;;;;;5012619;28;20940;-72
2023/04/24 10:28:31;;;;;;;18.63;17.13;;;12.80;99.90;;;;;;5013731;28;20440;-72
2023/04/24 10:31:01;;;;;;;18.00;16.70;;;12.80;99.90;;;;;;5012562;28;20439;-72
2023/04/24 10:33:31;;;;;;;16.00;14.80;;;12.90;99.90;;;;;;5013576;28;20479;-72
2023/04/24 10:36:00;;;;;;;16.10;14.90;;;12.90;99.90;;;;;;5013732;28;20440;-72
2023/04/24 10:38:30;;;;;;;16.63;15.33;;;12.90;99.90;;;;;;5012328;28;20486;-72
2023/04/24 10:41:09;;;;;;;17.37;15.87;;;12.80;99.90;;;;;;5014087;28;20436;-72
2023/04/24 10:43:37;;;;;;;16.57;15.20;;;12.80;99.90;;;;;;5013648;28;20466;-72
2023/04/24 10:46:08;;;;;;;17.90;16.40;;;12.70;99.90;;;;;;5013551;28;20935;-72
2023/04/24 10:48:36;;;;;;;16.67;15.37;;;12.70;99.90;;;;;;5013665;28;20456;-73
2023/04/24 10:51:04;;;;;;;16.90;15.60;;;12.60;99.90;;;;;;5012135;28;20819;-72
2023/04/24 10:53:35;;;;;;;16.93;15.63;;;12.60;99.90;;;;;;5013205;28;20483;-73
2023/04/24 10:56:05;;;;;;;17.53;16.23;;;12.60;99.90;;;;;;5013161;28;20432;-72
2023/04/24 10:58:40;;;;;;;17.70;16.40;;;12.50;99.90;;;;;;5012018;28;20494;-72
2023/04/24 11:01:09;;;;;;;17.17;15.87;;;12.50;99.90;;;;;;5013910;28;20455;-72
2023/04/24 11:03:41;;;;;;;15.67;14.47;;;12.50;99.90;;;;;;5013329;28;20853;-72
2023/04/24 11:06:10;;;;;;;15.17;13.97;;;12.50;99.90;;;;;;5015384;28;20424;-72
2023/04/24 11:08:40;;;;;;;14.23;13.13;;;12.40;99.90;;;;;;5016944;28;20449;-72
2023/04/24 11:11:11;;;;;;;15.00;13.80;;;12.40;99.90;;;;;;5017505;28;20798;-72
2023/04/24 11:14:07;;;;;;;15.33;14.13;;;12.40;99.90;;;;;;5016721;28;20915;-72
2023/04/24 11:16:44;;;;;;;15.40;14.20;;;12.40;99.90;;;;;;5018808;28;20420;-72
2023/04/24 11:19:23;;;;;;;15.40;14.20;;;12.40;99.90;;;;;;5017726;28;20854;-72
2023/04/24 11:22:00;;;;;;;15.13;14.03;;;12.30;99.90;;;;;;5017017;28;20450;-72
2023/04/24 11:24:38;;;;;;;14.30;13.30;;;12.40;99.90;;;;;;5017121;28;20872;-72
2023/04/24 11:27:15;;;;;;;14.30;13.20;;;12.40;99.90;;;;;;5018169;28;20445;-72
2023/04/24 11:29:45;;;;;;;14.20;13.10;;;12.30;99.90;;;;;;5018504;28;20447;-71
2023/04/24 11:32:28;;;;;;;16.33;12.63;;;12.40;99.90;;;;;;5018096;28;20456;-72
2023/04/24 11:34:58;;;;;;;13.40;12.23;;;12.30;99.90;;;;;;5017051;28;20435;-72
2023/04/24 11:37:29;;;;;;;18.17;16.67;;;12.40;99.90;;;;;;5016608;28;20454;-72
2023/04/24 11:39:59;;;;;;;13.30;12.20;;;12.40;99.90;;;;;;5016615;28;20428;-71
2023/04/24 11:42:29;;;;;;;13.70;12.60;;;12.40;99.90;;;;;;5018138;28;20459;-71
2023/04/24 11:44:57;;;;;;;14.17;13.07;;;12.30;99.90;;;;;;5017209;28;20889;-72
2023/04/24 11:47:30;;;;;;;12.87;11.80;;;12.30;99.90;;;;;;5018781;28;20466;-72
2023/04/24 11:49:59;;;;;;;10.80;9.90;;;12.30;99.90;;;;;;5018800;28;20511;-72
2023/04/24 11:52:29;;;;;;;10.47;9.67;;;12.20;99.90;;;;;;5018324;28;20479;-72
2023/04/24 11:54:58;;;;;;;11.40;10.47;;;12.10;99.90;;;;;;5017247;28;20794;-72
2023/04/24 11:57:28;;;;;;;11.50;10.50;;;12.10;99.90;;;;;;5018206;28;20432;-72
2023/04/24 11:59:56;;;;;;;12.77;11.60;;;12.10;99.90;;;;;;5018031;28;20424;-72
2023/04/24 12:02:25;;;;;;;13.40;12.30;;;12.00;99.90;;;;;;5016844;28;20598;-72
2023/04/24 12:04:55;;;;;;;11.77;10.77;;;12.00;99.90;;;;;;5016331;28;20444;-72
2023/04/24 12:07:25;;;;;;;11.67;10.67;;;11.90;99.90;;;;;;5017482;28;20472;-72
2023/04/24 12:09:59;;;;;;;12.27;11.23;;;11.90;99.90;;;;;;5016403;28;20448;-72
2023/04/24 12:12:29;;;;;;;11.40;10.50;;;11.90;99.90;;;;;;5015825;28;20478;-72
2023/04/24 12:14:58;;;;;;;11.73;10.73;;;11.90;99.90;;;;;;5015996;28;20493;-73
2023/04/24 12:17:28;;;;;;;11.20;10.30;;;11.90;99.90;;;;;;5016057;28;20436;-73
2023/04/24 12:20:02;;;;;;;11.97;10.97;;;11.90;99.90;;;;;;5016276;28;20527;-73
2023/04/24 12:22:45;;;;;;;11.40;10.40;;;11.90;99.90;;;;;;5016045;28;20463;-73
2023/04/24 12:25:14;;;;;;;11.20;10.20;;;11.90;99.90;;;;;;5016246;28;20786;-73
2023/04/24 12:27:42;;;;;;;12.40;11.40;;;11.80;99.90;;;;;;5014537;28;20804;-73
2023/04/24 12:30:13;;;;;;;11.43;10.43;;;11.80;99.90;;;;;;5015801;28;20436;-73
2023/04/24 12:32:45;;;;;;;11.50;10.50;;;11.70;99.90;;;;;;5014043;28;20480;-73
2023/04/24 12:35:20;;;;;;;12.10;11.00;;;11.70;99.90;;;;;;5015493;28;20416;-73
2023/04/24 12:37:49;;;;;;;11.00;10.10;;;11.70;99.90;;;;;;5015494;28;20984;-73
2023/04/24 12:40:18;;;;;;;10.23;9.27;;;11.70;99.90;;;;;;5014107;28;20451;-73
2023/04/24 12:42:48;;;;;;;9.20;7.90;;;11.60;99.90;;;;;;5014034;28;20896;-73
2023/04/24 12:45:18;;;;;;;6.60;6.00;;;11.60;99.90;;;;;;5015584;28;20435;-72
2023/04/24 12:47:47;;;;;;;6.77;6.07;;;11.60;99.90;;;;;;5013997;28;20455;-72
2023/04/24 12:50:17;;;;;;;12.47;10.80;;;11.50;99.90;;;;;;5013827;28;20498;-72
2023/04/24 12:52:45;;;;;;;14.90;13.40;;;11.50;99.90;;;;;;5015223;28;20525;-72